Destinations Southend Airport

Southend Airport (EGMC / SEN)

Flights to Southend Airport

Flight number From ETE Dispatch
SPY-2204 EGFF Cardiff International Airport 00:55
SPY-228 EHGG Groningen Airport Eelde 01:20

Flights from Southend Airport

Flight number To ETE Dispatch
SPY-2205 EGFF Cardiff International Airport 00:55
SPY-229 EHGG Groningen Airport Eelde
About

Southend Airport facts

Southend Airport is located in Southend at an elevation of 14.9 meters or 49 feet.

Currently, Speedy Airlines serves 4 flights to and from Southend Airport.

Detailed airport info

Route map

Weather

Current weather

METAR

METAR

Metar data retrieved Sunday, 21 July 2024 at 20:25 UTC

EGMC 211950Z 00000KT CAVOK 20/12 Q1012
Wind Temperature
0 kt 20c